createdAt,value
2018-09-28T00:00:18.306Z,0.30
2018-09-28T00:02:45.745Z,0.20
2018-09-28T00:05:13.190Z,0.20
2018-09-28T00:07:40.744Z,0.30
2018-09-28T00:10:08.196Z,0.30
2018-09-28T00:12:35.636Z,0.40
2018-09-28T00:15:03.108Z,0.50
2018-09-28T00:17:30.580Z,0.30
2018-09-28T00:19:58.076Z,0.30
2018-09-28T00:22:25.516Z,0.50
2018-09-28T00:24:53.267Z,0.40
2018-09-28T00:27:20.963Z,0.27
2018-09-28T00:29:48.420Z,0.37
2018-09-28T00:32:15.881Z,0.30
2018-09-28T00:34:43.343Z,0.40
2018-09-28T00:37:11.028Z,0.30
2018-09-28T00:39:38.519Z,0.30
2018-09-28T00:42:06.103Z,0.40
2018-09-28T00:44:33.537Z,0.50
2018-09-28T00:47:01.067Z,0.20
2018-09-28T00:49:28.562Z,0.30
2018-09-28T00:51:55.982Z,0.30
2018-09-28T00:54:23.413Z,0.20
2018-09-28T00:56:50.924Z,0.40
2018-09-28T00:59:18.352Z,0.57
2018-09-28T01:01:45.790Z,0.40
2018-09-28T01:04:13.221Z,0.40
2018-09-28T01:06:40.675Z,0.30
2018-09-28T01:09:09.323Z,0.40
2018-09-28T01:11:36.790Z,0.30
2018-09-28T01:14:04.250Z,0.23
2018-09-28T01:16:31.841Z,0.30
2018-09-28T01:18:59.282Z,0.33
2018-09-28T01:21:26.856Z,0.33
2018-09-28T01:23:54.334Z,0.20
2018-09-28T01:26:21.758Z,0.30
2018-09-28T01:28:49.194Z,0.30
2018-09-28T01:31:16.714Z,0.20
2018-09-28T01:33:44.166Z,0.40
2018-09-28T01:36:11.637Z,0.40
2018-09-28T01:38:39.106Z,0.33
2018-09-28T01:41:06.564Z,0.23
2018-09-28T01:43:34.257Z,0.30
2018-09-28T01:46:01.736Z,0.20
2018-09-28T01:48:29.192Z,0.50
2018-09-28T01:50:56.677Z,0.30
2018-09-28T01:53:24.133Z,0.30
2018-09-28T01:55:51.614Z,0.40
2018-09-28T01:58:19.073Z,0.50
2018-09-28T02:00:46.519Z,0.50
2018-09-28T02:03:13.983Z,0.30
2018-09-28T02:05:41.482Z,0.50
2018-09-28T02:08:08.911Z,0.50
2018-09-28T02:10:36.395Z,0.40
2018-09-28T02:13:04.032Z,0.50
2018-09-28T02:15:31.494Z,0.30
2018-09-28T02:17:58.971Z,0.50
2018-09-28T02:20:26.440Z,0.40
2018-09-28T02:22:53.878Z,0.50
2018-09-28T02:25:21.335Z,0.40
2018-09-28T02:27:48.760Z,0.40
2018-09-28T02:30:16.210Z,0.40
2018-09-28T02:32:43.658Z,0.40
2018-09-28T02:35:11.122Z,0.50
2018-09-28T02:37:38.539Z,0.40
2018-09-28T02:40:05.990Z,0.40
2018-09-28T02:42:33.440Z,0.40
2018-09-28T02:45:00.856Z,0.60
2018-09-28T02:47:28.377Z,0.40
2018-09-28T02:49:55.827Z,0.40
2018-09-28T02:52:23.249Z,0.50
2018-09-28T02:54:50.690Z,0.57
2018-09-28T02:57:18.152Z,0.50
2018-09-28T02:59:45.676Z,0.50
2018-09-28T03:02:13.120Z,0.57
2018-09-28T03:04:40.583Z,0.50
2018-09-28T03:07:08.003Z,0.60
2018-09-28T03:09:35.469Z,0.63
2018-09-28T03:12:02.942Z,0.50
2018-09-28T03:14:30.397Z,0.50
2018-09-28T03:16:57.856Z,0.60
2018-09-28T03:19:25.328Z,0.60
2018-09-28T03:21:52.770Z,0.70
2018-09-28T03:24:20.250Z,0.70
2018-09-28T03:26:47.660Z,0.80
2018-09-28T03:29:15.073Z,0.70
2018-09-28T03:31:42.514Z,0.80
2018-09-28T03:34:09.949Z,0.60
2018-09-28T03:36:37.421Z,0.90
2018-09-28T03:39:06.018Z,0.80
2018-09-28T03:41:33.477Z,0.90
2018-09-28T03:44:00.884Z,1.00
2018-09-28T03:46:28.339Z,0.80
2018-09-28T03:48:55.743Z,0.80
2018-09-28T03:51:23.208Z,0.70
2018-09-28T03:53:50.640Z,0.90
2018-09-28T03:56:18.035Z,0.67
2018-09-28T03:58:45.669Z,0.57
2018-09-28T04:01:13.113Z,0.70
2018-09-28T04:03:40.563Z,0.70
2018-09-28T04:06:07.985Z,0.80
2018-09-28T04:08:35.421Z,0.60
2018-09-28T04:11:02.804Z,0.50
2018-09-28T04:13:30.304Z,0.70
2018-09-28T04:15:57.729Z,0.70
2018-09-28T04:18:25.152Z,0.90
2018-09-28T04:20:52.581Z,1.00
2018-09-28T04:23:20.122Z,0.90
2018-09-28T04:25:47.531Z,0.60
2018-09-28T04:28:14.913Z,0.80
2018-09-28T04:30:42.350Z,0.70
2018-09-28T04:33:09.739Z,0.70
2018-09-28T04:35:37.210Z,0.70
2018-09-28T04:38:04.699Z,0.93
2018-09-28T04:40:32.258Z,0.73
2018-09-28T04:42:59.713Z,0.70
2018-09-28T04:45:27.175Z,0.80
2018-09-28T04:47:54.553Z,0.60
2018-09-28T04:50:21.994Z,0.90
2018-09-28T04:52:49.392Z,0.83
2018-09-28T04:55:16.815Z,0.60
2018-09-28T04:57:44.250Z,0.80
2018-09-28T05:00:11.664Z,0.60
2018-09-28T05:02:39.153Z,0.73
2018-09-28T05:05:06.630Z,0.70
2018-09-28T05:07:34.065Z,0.83
2018-09-28T05:10:01.485Z,0.70
2018-09-28T05:12:28.921Z,0.90
2018-09-28T05:14:56.353Z,0.50
2018-09-28T05:17:23.815Z,0.83
2018-09-28T05:19:51.254Z,0.60
2018-09-28T05:22:18.662Z,1.07
2018-09-28T05:24:46.088Z,0.90
2018-09-28T05:27:13.493Z,0.70
2018-09-28T05:29:40.934Z,0.60
2018-09-28T05:32:08.599Z,0.63
2018-09-28T05:34:35.917Z,0.50
2018-09-28T05:37:03.704Z,2.33
2018-09-28T05:39:31.222Z,7.17
2018-09-28T05:43:01.345Z,0.80
2018-09-28T05:45:28.787Z,0.80
2018-09-28T05:47:56.205Z,0.90
2018-09-28T05:50:23.647Z,0.50
2018-09-28T05:52:51.165Z,0.73
2018-09-28T05:55:18.641Z,0.90
2018-09-28T05:57:46.087Z,0.60
2018-09-28T06:00:18.961Z,0.70
2018-09-28T06:02:51.712Z,0.93
2018-09-28T06:05:24.461Z,0.97
2018-09-28T06:07:51.937Z,0.70
2018-09-28T06:10:19.389Z,0.60
2018-09-28T06:12:46.795Z,0.80
2018-09-28T06:15:14.211Z,0.87
2018-09-28T06:17:41.646Z,0.70
2018-09-28T06:20:09.177Z,0.83
2018-09-28T06:22:36.635Z,0.80
2018-09-28T06:25:04.135Z,0.70
2018-09-28T06:27:31.561Z,0.80
2018-09-28T06:29:59.185Z,0.77
2018-09-28T06:32:26.679Z,0.80
2018-09-28T06:34:54.104Z,1.90
2018-09-28T06:37:21.557Z,0.53
2018-09-28T06:39:49.014Z,0.60
2018-09-28T06:42:16.440Z,0.80
2018-09-28T06:44:43.922Z,1.10
2018-09-28T06:47:11.397Z,0.80
2018-09-28T06:49:38.821Z,0.70
2018-09-28T06:52:06.318Z,0.67
2018-09-28T06:54:33.769Z,3.00
2018-09-28T06:57:01.219Z,2.17
2018-09-28T06:59:28.710Z,0.67
2018-09-28T07:01:56.196Z,0.77
2018-09-28T07:04:23.649Z,1.07
2018-09-28T07:06:51.105Z,0.80
2018-09-28T07:09:18.632Z,1.20
2018-09-28T07:11:46.053Z,1.70
2018-09-28T07:14:13.476Z,1.30
2018-09-28T07:16:41.273Z,2.03
2018-09-28T07:19:09.167Z,1.47
2018-09-28T07:21:36.748Z,0.90
2018-09-28T07:24:04.175Z,1.00
2018-09-28T07:26:31.679Z,1.30
2018-09-28T07:28:59.163Z,1.30
2018-09-28T07:31:26.626Z,1.20
2018-09-28T07:33:54.272Z,1.30
2018-09-28T07:36:21.869Z,1.00
2018-09-28T07:38:49.194Z,1.10
2018-09-28T07:41:16.656Z,1.10
2018-09-28T07:43:44.113Z,1.10
2018-09-28T07:46:11.633Z,0.70
2018-09-28T07:48:39.077Z,0.73
2018-09-28T07:51:06.513Z,0.80
2018-09-28T07:53:34.814Z,0.50
2018-09-28T07:56:02.248Z,0.60
2018-09-28T07:58:29.758Z,0.57
2018-09-28T08:00:57.161Z,0.70
2018-09-28T08:03:26.629Z,0.60
2018-09-28T08:05:54.073Z,0.53
2018-09-28T08:08:21.678Z,1.10
2018-09-28T08:10:49.162Z,0.90
2018-09-28T08:13:16.602Z,2.40
2018-09-28T08:15:43.998Z,0.70
2018-09-28T08:18:11.450Z,0.57
2018-09-28T08:20:38.977Z,0.70
2018-09-28T08:23:06.414Z,0.90
2018-09-28T08:25:33.850Z,0.77
2018-09-28T08:28:01.307Z,0.63
2018-09-28T08:30:28.776Z,0.50
2018-09-28T08:32:56.156Z,0.50
2018-09-28T08:35:23.621Z,0.70
2018-09-28T08:37:51.120Z,0.60
2018-09-28T08:40:18.550Z,0.47
2018-09-28T08:42:46.003Z,0.40
2018-09-28T08:45:13.431Z,0.60
2018-09-28T08:47:40.860Z,0.60
2018-09-28T08:50:08.364Z,0.50
2018-09-28T08:52:35.829Z,0.40
2018-09-28T08:55:03.292Z,0.57
2018-09-28T08:57:30.725Z,0.43
2018-09-28T08:59:58.194Z,0.50
2018-09-28T09:02:25.696Z,0.70
2018-09-28T09:04:53.148Z,0.60
2018-09-28T09:07:20.556Z,0.50
2018-09-28T09:09:48.021Z,0.70
2018-09-28T09:12:15.432Z,0.30
2018-09-28T09:14:42.838Z,0.60
2018-09-28T09:17:10.321Z,0.60
2018-09-28T09:19:37.740Z,1.53
2018-09-28T09:22:05.132Z,0.70
2018-09-28T09:24:32.624Z,0.50
2018-09-28T09:27:00.022Z,0.50
2018-09-28T09:29:27.433Z,0.50
2018-09-28T09:31:54.999Z,0.60
2018-09-28T09:34:22.418Z,0.50
2018-09-28T09:36:49.849Z,0.40
2018-09-28T09:39:17.310Z,0.70
2018-09-28T09:41:44.808Z,0.77
2018-09-28T09:44:12.238Z,0.57
2018-09-28T09:46:39.709Z,0.60
2018-09-28T09:49:07.225Z,0.53
2018-09-28T09:51:34.611Z,0.80
2018-09-28T09:54:02.150Z,0.40
2018-09-28T09:56:29.553Z,0.50
2018-09-28T09:58:56.998Z,0.67
2018-09-28T10:01:29.738Z,0.50
2018-09-28T10:03:59.246Z,0.50
2018-09-28T10:06:26.649Z,0.40
2018-09-28T10:08:54.503Z,0.47
2018-09-28T10:11:21.914Z,0.40
2018-09-28T10:13:49.390Z,0.40
2018-09-28T10:16:16.801Z,0.60
2018-09-28T10:18:44.214Z,0.53
2018-09-28T10:21:11.679Z,0.60
2018-09-28T10:23:39.110Z,0.70
2018-09-28T10:26:06.538Z,0.60
2018-09-28T10:28:34.007Z,0.50
2018-09-28T10:31:01.387Z,0.40
2018-09-28T10:33:28.830Z,0.60
2018-09-28T10:35:56.302Z,0.50
2018-09-28T10:38:23.696Z,0.50
2018-09-28T10:40:51.469Z,0.60
2018-09-28T10:43:18.802Z,0.70
2018-09-28T10:45:46.328Z,0.57
2018-09-28T10:48:13.742Z,0.70
2018-09-28T10:50:41.167Z,0.57
2018-09-28T10:53:08.676Z,0.77
2018-09-28T10:55:36.067Z,0.57
2018-09-28T10:58:03.478Z,0.70
2018-09-28T11:00:30.964Z,0.60
2018-09-28T11:02:58.351Z,0.73
2018-09-28T11:05:25.725Z,0.60
2018-09-28T11:07:53.201Z,0.60
2018-09-28T11:10:20.627Z,1.00
2018-09-28T11:12:48.077Z,1.10
2018-09-28T11:15:15.570Z,0.90
2018-09-28T11:17:42.931Z,0.60
2018-09-28T11:20:10.382Z,0.43
2018-09-28T11:22:37.775Z,0.60
2018-09-28T11:25:05.242Z,0.53
2018-09-28T11:27:32.759Z,0.50
2018-09-28T11:30:00.094Z,0.40
2018-09-28T11:32:27.479Z,0.43
2018-09-28T11:34:54.888Z,0.50
2018-09-28T11:37:22.280Z,0.60
2018-09-28T11:39:49.723Z,0.50
2018-09-28T11:42:17.144Z,1.00
2018-09-28T11:44:44.545Z,0.50
2018-09-28T11:47:12.057Z,0.43
2018-09-28T11:49:39.480Z,0.40
2018-09-28T11:52:06.945Z,0.40
2018-09-28T11:54:34.668Z,0.50
2018-09-28T11:57:02.055Z,0.50
2018-09-28T11:59:29.455Z,0.37
2018-09-28T12:01:56.859Z,0.43
2018-09-28T12:04:24.265Z,0.37
2018-09-28T12:06:51.788Z,0.40
2018-09-28T12:09:19.232Z,0.30
2018-09-28T12:11:46.675Z,0.40
2018-09-28T12:14:14.125Z,0.50
2018-09-28T12:16:41.547Z,0.40
2018-09-28T12:19:08.976Z,0.23
2018-09-28T12:21:36.674Z,0.33
2018-09-28T12:24:04.326Z,0.30
2018-09-28T12:26:31.787Z,0.50
2018-09-28T12:28:59.377Z,0.30
2018-09-28T12:31:26.809Z,0.30
2018-09-28T12:33:54.219Z,0.30
2018-09-28T12:36:21.703Z,0.43
2018-09-28T12:38:49.081Z,0.50
2018-09-28T12:41:16.531Z,0.43
2018-09-28T12:43:45.247Z,0.30
2018-09-28T12:46:12.689Z,0.40
2018-09-28T12:48:40.141Z,0.30
2018-09-28T12:51:07.892Z,0.50
2018-09-28T12:53:35.588Z,0.80
2018-09-28T12:56:02.990Z,0.50
2018-09-28T12:58:30.465Z,0.70
2018-09-28T13:00:58.327Z,0.50
2018-09-28T13:03:26.081Z,0.50
2018-09-28T13:05:53.584Z,0.30
2018-09-28T13:08:21.829Z,0.30
2018-09-28T13:10:49.258Z,0.43
2018-09-28T13:13:17.582Z,0.60
2018-09-28T13:15:45.078Z,0.60
2018-09-28T13:18:12.524Z,0.50
2018-09-28T13:20:40.054Z,0.63
2018-09-28T13:23:07.493Z,0.47
2018-09-28T13:25:34.939Z,0.30
2018-09-28T13:28:03.661Z,0.40
2018-09-28T13:30:32.490Z,0.50
2018-09-28T13:33:04.419Z,0.80
2018-09-28T13:35:31.861Z,0.90
2018-09-28T13:37:59.536Z,0.60
2018-09-28T13:40:29.155Z,0.33
2018-09-28T13:42:58.050Z,0.70
2018-09-28T13:45:25.651Z,1.17
2018-09-28T13:47:53.208Z,0.70
2018-09-28T13:50:21.025Z,0.80
2018-09-28T13:52:48.658Z,0.70
2018-09-28T13:55:16.267Z,0.63
2018-09-28T13:57:43.725Z,0.50
2018-09-28T14:00:11.266Z,1.10
2018-09-28T14:02:38.767Z,1.27
2018-09-28T14:05:06.323Z,0.70
2018-09-28T14:07:33.748Z,0.70
2018-09-28T14:10:01.211Z,0.50
2018-09-28T14:12:28.699Z,0.60
2018-09-28T14:14:56.322Z,0.50
2018-09-28T14:17:23.827Z,0.70
2018-09-28T14:19:51.261Z,1.53
2018-09-28T14:22:18.840Z,1.60
2018-09-28T14:24:46.512Z,0.90
2018-09-28T14:27:13.924Z,0.93
2018-09-28T14:29:41.391Z,0.70
2018-09-28T14:32:08.955Z,5.20
2018-09-28T14:34:36.518Z,0.90
2018-09-28T14:37:04.148Z,0.70
2018-09-28T14:39:31.627Z,0.60
2018-09-28T14:41:59.074Z,0.70
2018-09-28T14:44:26.717Z,0.60
2018-09-28T14:46:54.252Z,0.60
2018-09-28T14:49:23.595Z,1.47
2018-09-28T14:51:51.058Z,2.43
2018-09-28T14:54:18.576Z,1.80
2018-09-28T14:56:46.175Z,0.43
2018-09-28T14:59:13.686Z,0.53
2018-09-28T15:01:41.165Z,0.40
2018-09-28T15:04:08.847Z,1.27
2018-09-28T15:06:36.389Z,0.90
2018-09-28T15:09:04.672Z,0.80
2018-09-28T15:11:32.156Z,1.40
2018-09-28T15:13:59.617Z,1.80
2018-09-28T15:16:27.364Z,1.37
2018-09-28T15:18:54.739Z,2.10
2018-09-28T15:21:22.264Z,2.00
2018-09-28T15:23:49.880Z,1.33
2018-09-28T15:26:17.380Z,0.93
2018-09-28T15:28:44.868Z,1.13
2018-09-28T15:31:12.340Z,1.80
2018-09-28T15:33:39.805Z,1.53
2018-09-28T15:36:07.313Z,4.93
2018-09-28T15:38:34.792Z,1.40
2018-09-28T15:41:02.727Z,1.40
2018-09-28T15:43:30.661Z,3.73
2018-09-28T15:45:58.398Z,3.33
2018-09-28T15:48:26.205Z,1.40
2018-09-28T15:50:53.853Z,3.43
2018-09-28T15:53:21.532Z,3.60
2018-09-28T15:55:49.091Z,1.80
2018-09-28T15:58:16.512Z,2.00
2018-09-28T16:00:43.991Z,1.40
2018-09-28T16:03:11.621Z,1.87
2018-09-28T16:05:39.040Z,1.20
2018-09-28T16:08:06.581Z,1.80
2018-09-28T16:10:34.079Z,1.57
2018-09-28T16:13:01.488Z,2.70
2018-09-28T16:15:28.918Z,2.33
2018-09-28T16:17:56.390Z,1.67
2018-09-28T16:20:23.850Z,1.20
2018-09-28T16:22:51.326Z,1.17
2018-09-28T16:25:18.800Z,1.53
2018-09-28T16:27:46.240Z,0.77
2018-09-28T16:30:13.881Z,0.70
2018-09-28T16:32:41.342Z,1.13
2018-09-28T16:35:08.819Z,1.00
2018-09-28T16:37:36.292Z,1.00
2018-09-28T16:40:03.789Z,0.87
2018-09-28T16:42:31.391Z,1.23
2018-09-28T16:44:58.856Z,1.40
2018-09-28T16:47:26.295Z,2.40
2018-09-28T16:49:53.707Z,2.23
2018-09-28T16:52:21.289Z,1.60
2018-09-28T16:54:48.699Z,1.27
2018-09-28T16:57:16.127Z,2.03
2018-09-28T16:59:43.581Z,2.10
2018-09-28T17:02:11.061Z,1.77
2018-09-28T17:04:38.506Z,1.30
2018-09-28T17:07:06.169Z,1.50
2018-09-28T17:09:33.609Z,1.70
2018-09-28T17:12:01.073Z,1.50
2018-09-28T17:14:28.537Z,1.90
2018-09-28T17:16:55.979Z,1.60
2018-09-28T17:19:23.370Z,1.67
2018-09-28T17:21:50.826Z,1.30
2018-09-28T17:24:18.272Z,1.13
2018-09-28T17:26:45.751Z,1.67
2018-09-28T17:29:13.197Z,2.30
2018-09-28T17:31:41.614Z,1.70
2018-09-28T17:34:09.090Z,2.73
2018-09-28T17:36:36.530Z,5.67
2018-09-28T17:39:05.955Z,2.20
2018-09-28T17:41:34.989Z,1.40
2018-09-28T17:44:02.452Z,2.10
2018-09-28T17:46:29.873Z,2.33
2018-09-28T17:48:57.350Z,2.60
2018-09-28T17:51:24.868Z,2.50
2018-09-28T17:53:52.336Z,2.67
2018-09-28T17:56:19.995Z,2.73
2018-09-28T17:58:47.446Z,2.80
2018-09-28T18:01:15.646Z,4.07
2018-09-28T18:03:43.114Z,4.43
2018-09-28T18:06:10.518Z,3.47
2018-09-28T18:08:37.974Z,3.63
2018-09-28T18:11:05.538Z,3.10
2018-09-28T18:13:33.000Z,5.40
2018-09-28T18:16:00.421Z,3.93
2018-09-28T18:18:27.915Z,4.40
2018-09-28T18:20:55.334Z,3.27
2018-09-28T18:23:22.830Z,4.53
2018-09-28T18:25:50.268Z,12.40
2018-09-28T18:28:17.781Z,6.40
2018-09-28T18:30:45.257Z,5.63
2018-09-28T18:33:12.654Z,5.83
2018-09-28T18:35:40.152Z,3.63
2018-09-28T18:38:07.640Z,5.20
2018-09-28T18:40:35.148Z,5.10
2018-09-28T18:43:02.592Z,4.30
2018-09-28T18:45:30.046Z,2.90
2018-09-28T18:47:57.466Z,3.30
2018-09-28T18:50:24.938Z,2.60
2018-09-28T18:52:54.435Z,3.43
2018-09-28T18:55:21.882Z,2.23
2018-09-28T18:57:49.307Z,4.17
2018-09-28T19:00:16.796Z,3.57
2018-09-28T19:02:44.264Z,3.23
2018-09-28T19:05:11.725Z,2.67
2018-09-28T19:07:39.141Z,2.77
2018-09-28T19:10:06.637Z,2.57
2018-09-28T19:12:34.197Z,2.10
2018-09-28T19:15:01.567Z,2.07
2018-09-28T19:17:29.051Z,2.20
2018-09-28T19:19:56.564Z,2.00
2018-09-28T19:22:24.115Z,2.17
2018-09-28T19:24:51.550Z,2.40
2018-09-28T19:27:19.006Z,2.27
2018-09-28T19:29:46.428Z,2.60
2018-09-28T19:32:13.884Z,2.20
2018-09-28T19:34:41.363Z,2.33
2018-09-28T19:37:08.821Z,2.20
2018-09-28T19:39:36.253Z,2.60
2018-09-28T19:42:03.756Z,1.97
2018-09-28T19:44:31.180Z,1.90
2018-09-28T19:46:58.577Z,2.07
2018-09-28T19:49:26.082Z,2.00
2018-09-28T19:51:53.503Z,1.90
2018-09-28T19:54:20.913Z,1.87
2018-09-28T19:56:48.381Z,2.00
2018-09-28T19:59:15.868Z,1.60
2018-09-28T20:01:43.297Z,1.70
2018-09-28T20:04:10.825Z,1.30
2018-09-28T20:06:38.238Z,1.60
2018-09-28T20:09:07.261Z,1.30
2018-09-28T20:11:34.798Z,1.20
2018-09-28T20:14:02.276Z,1.50
2018-09-28T20:16:29.689Z,1.37
2018-09-28T20:18:57.252Z,1.40
2018-09-28T20:21:24.786Z,1.30
2018-09-28T20:23:52.333Z,1.10
2018-09-28T20:26:19.870Z,1.07
2018-09-28T20:28:47.268Z,1.20
2018-09-28T20:31:14.718Z,1.03
2018-09-28T20:33:42.197Z,1.20
2018-09-28T20:36:09.637Z,1.10
2018-09-28T20:38:37.199Z,0.97
2018-09-28T20:41:04.597Z,1.13
2018-09-28T20:43:32.062Z,1.10
2018-09-28T20:45:59.590Z,1.40
2018-09-28T20:48:41.515Z,1.20
2018-09-28T20:51:09.151Z,1.10
2018-09-28T20:53:36.549Z,0.90
2018-09-28T20:56:03.938Z,1.13
2018-09-28T20:58:31.449Z,1.00
2018-09-28T21:00:58.907Z,1.40
2018-09-28T21:03:26.358Z,1.27
2018-09-28T21:05:53.847Z,2.10
2018-09-28T21:08:21.310Z,1.53
2018-09-28T21:10:48.713Z,1.43
2018-09-28T21:13:16.221Z,1.50
2018-09-28T21:15:43.662Z,1.23
2018-09-28T21:18:11.086Z,1.20
2018-09-28T21:20:38.511Z,1.10
2018-09-28T21:23:05.976Z,1.00
2018-09-28T21:25:33.385Z,1.17
2018-09-28T21:28:00.895Z,1.30
2018-09-28T21:30:28.302Z,1.20
2018-09-28T21:32:55.754Z,1.20
2018-09-28T21:35:23.241Z,1.27
2018-09-28T21:37:50.605Z,1.20
2018-09-28T21:40:18.092Z,1.10
2018-09-28T21:42:45.906Z,1.10
2018-09-28T21:45:13.344Z,1.10
2018-09-28T21:47:40.826Z,1.20
2018-09-28T21:50:08.295Z,1.30
2018-09-28T21:52:35.813Z,1.80
2018-09-28T21:55:03.285Z,2.00
2018-09-28T21:57:30.727Z,2.00
2018-09-28T21:59:58.233Z,2.10
2018-09-28T22:02:25.626Z,1.53
2018-09-28T22:04:53.127Z,1.70
2018-09-28T22:07:20.526Z,1.40
2018-09-28T22:09:47.959Z,1.57
2018-09-28T22:12:15.389Z,1.60
2018-09-28T22:14:42.875Z,1.53
2018-09-28T22:17:10.266Z,1.37
2018-09-28T22:19:37.681Z,1.40
2018-09-28T22:22:05.103Z,1.43
2018-09-28T22:24:32.537Z,1.30
2018-09-28T22:27:00.001Z,1.53
2018-09-28T22:29:27.486Z,2.27
2018-09-28T22:31:55.042Z,2.30
2018-09-28T22:34:22.498Z,1.70
2018-09-28T22:36:50.009Z,1.50
2018-09-28T22:39:17.487Z,1.07
2018-09-28T22:41:44.878Z,1.40
2018-09-28T22:44:12.358Z,8.00
2018-09-28T22:46:39.815Z,1.03
2018-09-28T22:49:07.863Z,0.80
2018-09-28T22:51:35.312Z,1.13
2018-09-28T22:54:02.826Z,0.90
2018-09-28T22:56:30.246Z,1.27
2018-09-28T22:58:57.683Z,1.10
2018-09-28T23:01:25.204Z,1.00
2018-09-28T23:03:52.621Z,1.30
2018-09-28T23:06:20.058Z,1.33
2018-09-28T23:08:47.530Z,0.97
2018-09-28T23:11:15.012Z,0.70
2018-09-28T23:13:42.531Z,0.77
2018-09-28T23:16:10.236Z,0.90
2018-09-28T23:18:37.707Z,1.10
2018-09-28T23:21:05.207Z,1.00
2018-09-28T23:23:32.606Z,1.00
2018-09-28T23:26:00.012Z,0.80
2018-09-28T23:28:27.526Z,1.07
2018-09-28T23:30:54.944Z,0.90
2018-09-28T23:33:22.450Z,0.83
2018-09-28T23:35:49.910Z,0.90
2018-09-28T23:38:17.512Z,0.97
2018-09-28T23:40:45.040Z,0.60
2018-09-28T23:43:12.478Z,1.00
2018-09-28T23:45:39.899Z,0.60
2018-09-28T23:48:07.317Z,0.70
2018-09-28T23:50:34.813Z,0.50
2018-09-28T23:53:02.357Z,0.80
2018-09-28T23:55:29.855Z,0.77
2018-09-28T23:57:57.297Z,0.87
